createdAt,value
2018-08-19T00:02:10.096Z,24.52
2018-08-19T00:04:36.411Z,24.41
2018-08-19T00:07:02.723Z,24.45
2018-08-19T00:09:29.037Z,24.45
2018-08-19T00:11:55.349Z,24.48
2018-08-19T00:14:21.709Z,24.54
2018-08-19T00:16:48.019Z,24.51
2018-08-19T00:19:14.333Z,24.46
2018-08-19T00:21:40.727Z,24.44
2018-08-19T00:24:06.985Z,24.51
2018-08-19T00:26:33.291Z,24.51
2018-08-19T00:28:59.610Z,24.31
2018-08-19T00:31:25.922Z,24.15
2018-08-19T00:33:52.246Z,24.11
2018-08-19T00:36:18.538Z,24.10
2018-08-19T00:38:44.848Z,24.09
2018-08-19T00:41:11.161Z,24.11
2018-08-19T00:43:37.484Z,24.16
2018-08-19T00:46:03.832Z,24.16
2018-08-19T00:48:30.187Z,24.08
2018-08-19T00:50:56.503Z,24.03
2018-08-19T00:53:22.818Z,24.05
2018-08-19T00:55:49.165Z,24.08
2018-08-19T00:58:15.470Z,24.13
2018-08-19T01:00:41.786Z,24.10
2018-08-19T01:03:08.101Z,24.06
2018-08-19T01:05:34.404Z,24.00
2018-08-19T01:08:00.724Z,24.02
2018-08-19T01:10:27.036Z,24.04
2018-08-19T01:12:53.362Z,24.05
2018-08-19T01:15:19.676Z,24.07
2018-08-19T01:17:45.989Z,24.03
2018-08-19T01:20:12.306Z,23.85
2018-08-19T01:22:38.617Z,23.88
2018-08-19T01:25:04.938Z,23.90
2018-08-19T01:27:31.253Z,23.84
2018-08-19T01:29:57.568Z,23.81
2018-08-19T01:32:23.888Z,23.79
2018-08-19T01:34:50.201Z,23.64
2018-08-19T01:37:16.513Z,23.49
2018-08-19T01:39:42.824Z,23.53
2018-08-19T01:42:09.135Z,23.53
2018-08-19T01:44:35.443Z,23.49
2018-08-19T01:47:01.756Z,23.47
2018-08-19T01:49:28.060Z,23.54
2018-08-19T01:51:54.367Z,23.60
2018-08-19T01:54:20.680Z,23.56
2018-08-19T01:56:46.995Z,23.53
2018-08-19T01:59:13.315Z,23.51
2018-08-19T02:01:39.620Z,23.48
2018-08-19T02:04:05.938Z,23.42
2018-08-19T02:06:32.284Z,23.40
2018-08-19T02:08:58.648Z,23.44
2018-08-19T02:11:24.965Z,23.47
2018-08-19T02:13:51.310Z,23.47
2018-08-19T02:16:17.644Z,23.48
2018-08-19T02:18:43.986Z,23.49
2018-08-19T02:21:10.298Z,23.46
2018-08-19T02:23:36.611Z,23.46
2018-08-19T02:26:02.966Z,23.33
2018-08-19T02:28:29.270Z,23.31
2018-08-19T02:30:55.641Z,23.31
2018-08-19T02:33:21.953Z,23.40
2018-08-19T02:35:48.260Z,23.44
2018-08-19T02:38:14.570Z,23.37
2018-08-19T02:40:40.880Z,23.28
2018-08-19T02:43:07.189Z,23.33
2018-08-19T02:45:33.501Z,23.25
2018-08-19T02:47:59.807Z,23.11
2018-08-19T02:50:26.121Z,23.01
2018-08-19T02:52:52.439Z,22.85
2018-08-19T02:55:18.752Z,22.74
2018-08-19T02:57:45.072Z,22.74
2018-08-19T03:00:11.382Z,22.86
2018-08-19T03:02:37.692Z,23.04
2018-08-19T03:05:04.005Z,23.15
2018-08-19T03:07:30.318Z,23.17
2018-08-19T03:09:56.673Z,23.15
2018-08-19T03:12:23.018Z,23.19
2018-08-19T03:14:49.369Z,23.18
2018-08-19T03:17:15.726Z,23.14
2018-08-19T03:19:42.048Z,23.11
2018-08-19T03:22:08.369Z,23.10
2018-08-19T03:24:34.678Z,23.05
2018-08-19T03:27:01.039Z,22.96
2018-08-19T03:29:27.342Z,22.90
2018-08-19T03:31:53.658Z,22.86
2018-08-19T03:34:19.976Z,22.90
2018-08-19T03:36:46.293Z,22.87
2018-08-19T03:39:12.608Z,22.85
2018-08-19T03:41:38.920Z,22.85
2018-08-19T03:44:05.230Z,22.84
2018-08-19T03:46:31.537Z,22.79
2018-08-19T03:48:57.845Z,22.76
2018-08-19T03:51:24.195Z,22.75
2018-08-19T03:53:50.509Z,22.75
2018-08-19T03:56:16.827Z,22.75
2018-08-19T03:58:43.184Z,22.77
2018-08-19T04:01:09.520Z,22.80
2018-08-19T04:03:35.828Z,22.75
2018-08-19T04:06:02.144Z,22.76
2018-08-19T04:08:28.449Z,22.70
2018-08-19T04:10:54.773Z,22.72
2018-08-19T04:13:21.123Z,22.76
2018-08-19T04:15:47.431Z,22.71
2018-08-19T04:18:13.751Z,22.70
2018-08-19T04:20:40.061Z,22.72
2018-08-19T04:23:06.375Z,22.74
2018-08-19T04:25:32.694Z,22.73
2018-08-19T04:27:59.024Z,22.70
2018-08-19T04:30:25.330Z,22.77
2018-08-19T04:32:51.674Z,22.67
2018-08-19T04:35:17.990Z,22.54
2018-08-19T04:37:44.298Z,22.37
2018-08-19T04:40:10.618Z,22.27
2018-08-19T04:42:36.981Z,22.43
2018-08-19T04:45:03.282Z,22.63
2018-08-19T04:47:29.600Z,22.78
2018-08-19T04:49:55.911Z,22.90
2018-08-19T04:52:22.224Z,22.96
2018-08-19T04:54:48.560Z,23.03
2018-08-19T04:57:14.879Z,23.09
2018-08-19T04:59:41.193Z,23.16
2018-08-19T05:02:07.523Z,23.20
2018-08-19T05:04:33.822Z,23.30
2018-08-19T05:07:00.183Z,23.35
2018-08-19T05:09:26.494Z,23.36
2018-08-19T05:11:52.805Z,23.40
2018-08-19T05:14:19.117Z,23.44
2018-08-19T05:16:45.430Z,23.47
2018-08-19T05:19:11.751Z,23.53
2018-08-19T05:21:38.058Z,23.59
2018-08-19T05:24:04.372Z,23.62
2018-08-19T05:26:30.694Z,23.67
2018-08-19T05:28:56.999Z,23.76
2018-08-19T05:31:23.367Z,23.82
2018-08-19T05:33:49.631Z,23.90
2018-08-19T05:36:15.963Z,23.90
2018-08-19T05:38:42.299Z,23.95
2018-08-19T05:41:08.609Z,24.01
2018-08-19T05:43:34.915Z,24.08
2018-08-19T05:46:01.277Z,24.15
2018-08-19T05:48:27.589Z,24.17
2018-08-19T05:50:53.897Z,24.16
2018-08-19T05:53:20.212Z,24.22
2018-08-19T05:55:46.524Z,24.29
2018-08-19T05:58:12.828Z,24.39
2018-08-19T06:00:39.138Z,24.48
2018-08-19T06:03:05.447Z,24.55
2018-08-19T06:05:31.761Z,24.65
2018-08-19T06:07:58.070Z,24.72
2018-08-19T06:10:24.381Z,24.84
2018-08-19T06:12:50.697Z,24.92
2018-08-19T06:15:17.015Z,24.99
2018-08-19T06:17:43.332Z,24.98
2018-08-19T06:20:09.650Z,25.08
2018-08-19T06:22:35.959Z,25.24
2018-08-19T06:25:02.311Z,25.31
2018-08-19T06:27:28.631Z,25.43
2018-08-19T06:29:54.946Z,25.57
2018-08-19T06:32:21.252Z,25.72
2018-08-19T06:34:47.668Z,25.86
2018-08-19T06:37:13.876Z,26.02
2018-08-19T06:39:40.189Z,26.12
2018-08-19T06:42:06.503Z,26.24
2018-08-19T06:44:32.840Z,26.20
2018-08-19T06:46:59.148Z,26.09
2018-08-19T06:49:25.465Z,26.26
2018-08-19T06:51:51.908Z,26.50
2018-08-19T06:54:18.270Z,26.70
2018-08-19T06:56:44.582Z,26.73
2018-08-19T06:59:10.891Z,26.83
2018-08-19T07:01:37.213Z,26.95
2018-08-19T07:04:03.534Z,27.11
2018-08-19T07:06:29.849Z,27.19
2018-08-19T07:08:56.271Z,27.35
2018-08-19T07:11:22.582Z,27.52
2018-08-19T07:13:48.900Z,27.58
2018-08-19T07:16:15.230Z,27.59
2018-08-19T07:18:41.597Z,27.74
2018-08-19T07:21:07.854Z,27.93
2018-08-19T07:23:34.171Z,28.12
2018-08-19T07:26:00.480Z,28.37
2018-08-19T07:28:26.833Z,28.48
2018-08-19T07:30:53.138Z,28.65
2018-08-19T07:33:19.451Z,28.72
2018-08-19T07:35:45.760Z,28.71
2018-08-19T07:38:12.063Z,28.90
2018-08-19T07:40:38.381Z,28.98
2018-08-19T07:43:04.699Z,29.10
2018-08-19T07:45:31.010Z,29.06
2018-08-19T07:47:57.335Z,29.09
2018-08-19T07:50:23.662Z,29.10
2018-08-19T07:52:50.055Z,29.01
2018-08-19T07:55:16.366Z,29.15
2018-08-19T07:57:42.676Z,29.23
2018-08-19T08:00:09.048Z,29.37
2018-08-19T08:02:35.349Z,29.49
2018-08-19T08:05:01.660Z,29.38
2018-08-19T08:07:27.981Z,29.23
2018-08-19T08:09:54.298Z,29.41
2018-08-19T08:12:20.609Z,29.51
2018-08-19T08:14:46.953Z,29.63
2018-08-19T08:17:13.268Z,29.76
2018-08-19T08:19:39.587Z,29.82
2018-08-19T08:22:05.903Z,29.78
2018-08-19T08:24:32.226Z,29.70
2018-08-19T08:26:58.537Z,29.58
2018-08-19T08:29:24.850Z,29.35
2018-08-19T08:31:51.162Z,29.33
2018-08-19T08:34:17.533Z,29.34
2018-08-19T08:36:43.798Z,29.38
2018-08-19T08:39:10.171Z,29.55
2018-08-19T08:41:36.477Z,29.73
2018-08-19T08:44:02.782Z,29.95
2018-08-19T08:46:29.102Z,30.13
2018-08-19T08:48:55.432Z,30.28
2018-08-19T08:51:21.740Z,30.14
2018-08-19T08:53:48.052Z,30.03
2018-08-19T08:56:14.397Z,29.91
2018-08-19T08:58:40.675Z,29.74
2018-08-19T09:01:06.992Z,29.58
2018-08-19T09:03:33.306Z,29.63
2018-08-19T09:05:59.627Z,29.70
2018-08-19T09:08:25.988Z,29.72
2018-08-19T09:10:52.320Z,29.69
2018-08-19T09:13:18.637Z,29.63
2018-08-19T09:15:44.979Z,29.71
2018-08-19T09:18:11.264Z,29.84
2018-08-19T09:20:37.568Z,29.91
2018-08-19T09:23:03.972Z,29.86
2018-08-19T09:25:30.200Z,29.94
2018-08-19T09:27:56.561Z,29.87
2018-08-19T09:30:22.878Z,29.84
2018-08-19T09:32:49.316Z,30.00
2018-08-19T09:35:15.589Z,30.17
2018-08-19T09:37:41.916Z,30.17
2018-08-19T09:40:08.237Z,30.18
2018-08-19T09:42:34.551Z,30.28
2018-08-19T09:45:00.857Z,30.26
2018-08-19T09:47:27.218Z,30.26
2018-08-19T09:49:53.492Z,30.45
2018-08-19T09:52:19.844Z,30.53
2018-08-19T09:54:46.154Z,30.38
2018-08-19T09:57:12.468Z,30.24
2018-08-19T09:59:38.782Z,30.22
2018-08-19T10:02:05.100Z,30.27
2018-08-19T10:04:31.414Z,30.31
2018-08-19T10:06:57.736Z,30.25
2018-08-19T10:09:24.090Z,30.18
2018-08-19T10:11:50.408Z,30.14
2018-08-19T10:14:16.718Z,30.05
2018-08-19T10:16:43.062Z,30.12
2018-08-19T10:19:09.343Z,30.24
2018-08-19T10:21:35.653Z,30.33
2018-08-19T10:24:01.965Z,30.57
2018-08-19T10:26:28.324Z,30.77
2018-08-19T10:28:55.986Z,30.90
2018-08-19T10:31:22.334Z,31.01
2018-08-19T10:33:48.612Z,31.00
2018-08-19T10:36:14.929Z,30.98
2018-08-19T10:38:41.248Z,31.01
2018-08-19T10:41:07.558Z,31.05
2018-08-19T10:43:33.870Z,31.12
2018-08-19T10:46:00.185Z,31.12
2018-08-19T10:48:26.508Z,31.10
2018-08-19T10:50:52.831Z,31.06
2018-08-19T10:53:19.161Z,31.12
2018-08-19T10:55:45.480Z,31.15
2018-08-19T10:58:11.803Z,31.22
2018-08-19T11:00:38.162Z,31.16
2018-08-19T11:03:04.479Z,31.09
2018-08-19T11:05:30.792Z,31.12
2018-08-19T11:07:57.120Z,31.17
2018-08-19T11:10:23.424Z,31.27
2018-08-19T11:12:49.731Z,31.42
2018-08-19T11:15:16.043Z,31.51
2018-08-19T11:17:42.391Z,31.62
2018-08-19T11:20:08.700Z,31.58
2018-08-19T11:22:35.054Z,31.64
2018-08-19T11:25:01.372Z,31.68
2018-08-19T11:27:27.720Z,31.69
2018-08-19T11:29:54.000Z,31.74
2018-08-19T11:32:20.312Z,31.73
2018-08-19T11:34:46.622Z,31.68
2018-08-19T11:37:12.937Z,31.73
2018-08-19T11:39:39.245Z,31.64
2018-08-19T11:42:05.601Z,31.50
2018-08-19T11:44:31.916Z,31.38
2018-08-19T11:46:58.271Z,31.28
2018-08-19T11:49:24.602Z,31.22
2018-08-19T11:51:50.979Z,31.16
2018-08-19T11:54:17.310Z,31.09
2018-08-19T11:56:43.612Z,31.05
2018-08-19T11:59:09.927Z,31.04
2018-08-19T12:01:36.235Z,31.13
2018-08-19T12:04:02.555Z,31.21
2018-08-19T12:06:28.882Z,31.26
2018-08-19T12:08:55.202Z,31.27
2018-08-19T12:11:21.512Z,31.23
2018-08-19T12:13:52.809Z,31.33
2018-08-19T12:16:14.650Z,31.38
2018-08-19T12:18:40.948Z,31.39
2018-08-19T12:21:07.266Z,31.33
2018-08-19T12:23:33.613Z,31.25
2018-08-19T12:25:59.929Z,31.19
2018-08-19T12:28:29.479Z,31.14
2018-08-19T12:30:55.789Z,31.14
2018-08-19T12:33:22.128Z,31.10
2018-08-19T12:35:48.445Z,31.05
2018-08-19T12:38:14.759Z,31.07
2018-08-19T12:40:41.110Z,31.08
2018-08-19T12:43:07.420Z,31.06
2018-08-19T12:45:33.736Z,31.04
2018-08-19T12:48:00.047Z,31.04
2018-08-19T12:50:26.356Z,30.85
2018-08-19T12:52:52.675Z,30.56
2018-08-19T12:55:18.981Z,30.44
2018-08-19T12:57:45.371Z,30.38
2018-08-19T13:00:11.681Z,30.23
2018-08-19T13:02:37.998Z,29.98
2018-08-19T13:05:18.556Z,29.72
2018-08-19T13:07:44.731Z,29.35
2018-08-19T13:10:11.042Z,29.11
2018-08-19T13:12:37.352Z,29.03
2018-08-19T13:15:03.753Z,29.08
2018-08-19T13:17:40.658Z,29.15
2018-08-19T13:20:06.981Z,29.16
2018-08-19T13:22:33.297Z,29.12
2018-08-19T13:24:59.651Z,29.13
2018-08-19T13:27:26.010Z,29.12
2018-08-19T13:29:52.329Z,29.13
2018-08-19T13:32:18.641Z,29.13
2018-08-19T13:34:45.038Z,29.13
2018-08-19T13:37:11.389Z,29.16
2018-08-19T13:39:37.694Z,29.17
2018-08-19T13:42:04.012Z,29.17
2018-08-19T13:44:30.319Z,29.17
2018-08-19T13:46:56.682Z,29.18
2018-08-19T13:49:22.986Z,29.14
2018-08-19T13:51:49.296Z,29.15
2018-08-19T13:54:15.606Z,29.15
2018-08-19T13:56:41.926Z,29.15
2018-08-19T13:59:08.251Z,29.14
2018-08-19T14:01:34.567Z,29.12
2018-08-19T14:04:00.911Z,29.15
2018-08-19T14:06:27.224Z,29.18
2018-08-19T14:08:53.536Z,29.14
2018-08-19T14:11:19.847Z,29.15
2018-08-19T14:13:46.157Z,29.15
2018-08-19T14:16:12.479Z,29.15
2018-08-19T14:18:38.794Z,29.19
2018-08-19T14:21:05.111Z,29.19
2018-08-19T14:23:31.424Z,29.19
2018-08-19T14:25:57.751Z,29.17
2018-08-19T14:28:24.143Z,29.16
2018-08-19T14:30:50.509Z,29.16
2018-08-19T14:33:19.000Z,29.16
2018-08-19T14:35:44.091Z,29.19
2018-08-19T14:38:10.403Z,29.19
2018-08-19T14:40:36.733Z,29.16
2018-08-19T14:43:03.039Z,29.17
2018-08-19T14:45:30.544Z,29.16
2018-08-19T14:47:56.883Z,29.16
2018-08-19T14:50:23.193Z,29.16
2018-08-19T14:52:49.509Z,29.15
2018-08-19T14:55:15.828Z,29.17
2018-08-19T14:57:42.139Z,29.19
2018-08-19T15:00:08.449Z,29.19
2018-08-19T15:02:34.760Z,29.17
2018-08-19T15:05:01.088Z,29.20
2018-08-19T15:07:27.394Z,29.19
2018-08-19T15:09:53.845Z,29.21
2018-08-19T15:12:20.055Z,29.21
2018-08-19T15:14:46.367Z,29.21
2018-08-19T15:17:12.678Z,29.19
2018-08-19T15:19:39.017Z,29.19
2018-08-19T15:22:05.342Z,29.21
2018-08-19T15:24:31.653Z,29.20
2018-08-19T15:26:57.979Z,29.20
2018-08-19T15:29:24.332Z,29.20
2018-08-19T15:31:50.740Z,29.19
2018-08-19T15:34:17.096Z,29.16
2018-08-19T15:36:43.413Z,29.13
2018-08-19T15:39:09.746Z,29.13
2018-08-19T15:41:36.061Z,29.10
2018-08-19T15:44:02.408Z,29.08
2018-08-19T15:46:28.727Z,29.09
2018-08-19T15:48:55.090Z,29.07
2018-08-19T15:51:21.431Z,29.05
2018-08-19T15:53:47.745Z,29.06
2018-08-19T15:56:14.051Z,29.05
2018-08-19T15:58:40.427Z,29.02
2018-08-19T16:01:06.729Z,29.01
2018-08-19T16:03:33.047Z,28.99
2018-08-19T16:05:59.367Z,28.98
2018-08-19T16:08:25.682Z,28.98
2018-08-19T16:10:51.994Z,28.97
2018-08-19T16:13:18.314Z,28.94
2018-08-19T16:15:44.621Z,28.93
2018-08-19T16:18:10.942Z,28.88
2018-08-19T16:20:37.250Z,28.87
2018-08-19T16:23:03.579Z,28.89
2018-08-19T16:25:29.892Z,28.89
2018-08-19T16:27:56.195Z,28.85
2018-08-19T16:30:22.514Z,28.78
2018-08-19T16:32:48.830Z,28.74
2018-08-19T16:35:15.150Z,28.68
2018-08-19T16:37:41.506Z,28.67
2018-08-19T16:40:07.825Z,28.66
2018-08-19T16:42:34.131Z,28.63
2018-08-19T16:45:00.489Z,28.59
2018-08-19T16:47:26.797Z,28.58
2018-08-19T16:49:53.133Z,28.53
2018-08-19T16:52:19.446Z,28.54
2018-08-19T16:54:45.760Z,28.53
2018-08-19T16:57:12.178Z,28.50
2018-08-19T16:59:38.452Z,28.51
2018-08-19T17:02:04.769Z,28.48
2018-08-19T17:04:31.080Z,28.45
2018-08-19T17:06:57.394Z,28.39
2018-08-19T17:09:23.700Z,28.34
2018-08-19T17:11:50.011Z,28.33
2018-08-19T17:14:16.374Z,28.34
2018-08-19T17:16:42.687Z,28.32
2018-08-19T17:19:09.000Z,28.29
2018-08-19T17:21:35.311Z,28.25
2018-08-19T17:24:01.656Z,28.22
2018-08-19T17:26:28.000Z,28.15
2018-08-19T17:28:54.247Z,28.14
2018-08-19T17:31:20.577Z,28.07
2018-08-19T17:33:46.908Z,28.05
2018-08-19T17:36:13.215Z,27.99
2018-08-19T17:38:39.541Z,27.96
2018-08-19T17:41:05.849Z,27.96
2018-08-19T17:43:32.162Z,27.92
2018-08-19T17:45:58.479Z,27.88
2018-08-19T17:48:24.787Z,27.87
2018-08-19T17:50:51.095Z,27.78
2018-08-19T17:53:17.407Z,27.75
2018-08-19T17:55:43.729Z,27.70
2018-08-19T17:58:10.039Z,27.62
2018-08-19T18:00:36.346Z,27.66
2018-08-19T18:03:02.652Z,27.61
2018-08-19T18:05:28.985Z,27.59
2018-08-19T18:07:55.281Z,27.55
2018-08-19T18:10:21.606Z,27.59
2018-08-19T18:12:47.920Z,27.57
2018-08-19T18:15:14.298Z,27.57
2018-08-19T18:17:40.564Z,27.51
2018-08-19T18:20:06.883Z,27.50
2018-08-19T18:22:33.279Z,27.47
2018-08-19T18:24:59.645Z,27.42
2018-08-19T18:27:25.973Z,27.44
2018-08-19T18:29:52.299Z,27.38
2018-08-19T18:32:18.634Z,27.36
2018-08-19T18:34:44.946Z,27.34
2018-08-19T18:37:11.265Z,27.29
2018-08-19T18:39:37.580Z,27.23
2018-08-19T18:42:03.922Z,27.22
2018-08-19T18:44:30.250Z,27.22
2018-08-19T18:46:56.574Z,27.13
2018-08-19T18:49:22.910Z,27.09
2018-08-19T18:51:49.232Z,27.15
2018-08-19T18:54:15.594Z,27.07
2018-08-19T18:56:41.903Z,26.97
2018-08-19T18:59:08.232Z,26.95
2018-08-19T19:01:34.541Z,26.99
2018-08-19T19:04:01.117Z,26.97
2018-08-19T19:06:27.480Z,26.99
2018-08-19T19:08:53.789Z,27.03
2018-08-19T19:11:20.100Z,27.00
2018-08-19T19:13:46.412Z,26.99
2018-08-19T19:16:12.718Z,27.03
2018-08-19T19:18:39.036Z,26.97
2018-08-19T19:21:05.350Z,26.95
2018-08-19T19:23:31.742Z,26.94
2018-08-19T19:25:58.053Z,26.92
2018-08-19T19:28:24.424Z,26.91
2018-08-19T19:30:50.726Z,26.88
2018-08-19T19:33:17.042Z,26.89
2018-08-19T19:35:43.384Z,26.84
2018-08-19T19:38:09.691Z,26.80
2018-08-19T19:40:36.035Z,26.80
2018-08-19T19:43:02.354Z,26.80
2018-08-19T19:45:28.676Z,26.78
2018-08-19T19:47:54.996Z,26.78
2018-08-19T19:50:21.311Z,26.75
2018-08-19T19:52:47.616Z,26.70
2018-08-19T19:55:13.957Z,26.66
2018-08-19T19:57:40.241Z,26.62
2018-08-19T20:00:06.612Z,26.62
2018-08-19T20:02:32.920Z,26.56
2018-08-19T20:04:59.263Z,26.54
2018-08-19T20:07:25.633Z,26.49
2018-08-19T20:09:51.944Z,26.47
2018-08-19T20:12:18.265Z,26.44
2018-08-19T20:14:44.576Z,26.37
2018-08-19T20:17:10.902Z,26.31
2018-08-19T20:19:37.238Z,26.28
2018-08-19T20:22:03.565Z,26.27
2018-08-19T20:24:29.884Z,26.21
2018-08-19T20:26:56.210Z,26.18
2018-08-19T20:29:22.578Z,26.08
2018-08-19T20:31:48.892Z,26.07
2018-08-19T20:34:15.203Z,26.02
2018-08-19T20:36:41.536Z,25.99
2018-08-19T20:39:07.852Z,25.94
2018-08-19T20:41:34.161Z,25.95
2018-08-19T20:44:00.490Z,25.99
2018-08-19T20:46:26.818Z,26.03
2018-08-19T20:48:53.155Z,26.06
2018-08-19T20:51:19.485Z,26.05
2018-08-19T20:53:45.820Z,26.08
2018-08-19T20:56:12.142Z,26.06
2018-08-19T20:58:38.446Z,26.05
2018-08-19T21:01:04.758Z,26.07
2018-08-19T21:03:31.072Z,26.08
2018-08-19T21:05:57.397Z,26.06
2018-08-19T21:08:23.714Z,26.07
2018-08-19T21:10:50.022Z,26.07
2018-08-19T21:13:16.351Z,26.09
2018-08-19T21:15:42.665Z,26.06
2018-08-19T21:18:08.996Z,26.08
2018-08-19T21:20:35.314Z,26.09
2018-08-19T21:23:01.672Z,26.07
2018-08-19T21:25:27.990Z,26.02
2018-08-19T21:27:54.303Z,25.96
2018-08-19T21:30:20.683Z,25.95
2018-08-19T21:32:46.963Z,25.92
2018-08-19T21:35:13.282Z,25.90
2018-08-19T21:37:39.597Z,25.88
2018-08-19T21:40:05.910Z,25.89
2018-08-19T21:42:32.352Z,25.86
2018-08-19T21:44:58.666Z,25.87
2018-08-19T21:47:24.979Z,25.88
2018-08-19T21:49:51.297Z,25.81
2018-08-19T21:52:17.615Z,25.77
2018-08-19T21:54:43.925Z,25.74
2018-08-19T21:57:10.282Z,25.71
2018-08-19T21:59:36.628Z,25.72
2018-08-19T22:02:02.947Z,25.70
2018-08-19T22:04:29.251Z,25.62
2018-08-19T22:06:55.571Z,25.60
2018-08-19T22:09:21.884Z,25.52
2018-08-19T22:11:48.197Z,25.47
2018-08-19T22:14:14.518Z,25.43
2018-08-19T22:16:40.836Z,25.44
2018-08-19T22:19:07.152Z,25.44
2018-08-19T22:21:33.466Z,25.47
2018-08-19T22:23:59.787Z,25.48
2018-08-19T22:26:26.102Z,25.41
2018-08-19T22:28:52.432Z,25.38
2018-08-19T22:31:18.789Z,25.36
2018-08-19T22:33:45.102Z,25.29
2018-08-19T22:36:11.416Z,25.26
2018-08-19T22:38:37.730Z,25.21
2018-08-19T22:41:04.047Z,25.02
2018-08-19T22:43:30.360Z,24.77
2018-08-19T22:45:56.709Z,24.73
2018-08-19T22:48:23.021Z,24.78
2018-08-19T22:50:49.331Z,24.90
2018-08-19T22:53:15.667Z,24.94
2018-08-19T22:55:42.012Z,24.94
2018-08-19T22:58:08.319Z,24.89
2018-08-19T23:00:34.627Z,24.89
2018-08-19T23:03:00.938Z,24.87
2018-08-19T23:05:27.264Z,24.86
2018-08-19T23:07:53.641Z,24.81
2018-08-19T23:10:19.948Z,24.78
2018-08-19T23:12:46.266Z,24.73
2018-08-19T23:15:12.589Z,24.68
2018-08-19T23:17:38.906Z,24.68
2018-08-19T23:20:05.269Z,24.68
2018-08-19T23:22:31.543Z,24.71
2018-08-19T23:24:57.847Z,24.66
2018-08-19T23:27:24.158Z,24.63
2018-08-19T23:29:50.493Z,24.64
2018-08-19T23:32:16.833Z,24.64
2018-08-19T23:34:43.178Z,24.61
2018-08-19T23:37:09.495Z,24.64
2018-08-19T23:39:35.814Z,24.61
2018-08-19T23:42:02.125Z,24.60
2018-08-19T23:44:28.436Z,24.59
2018-08-19T23:46:54.749Z,24.60
2018-08-19T23:49:21.095Z,24.56
2018-08-19T23:51:47.403Z,24.48
2018-08-19T23:54:13.711Z,24.48
2018-08-19T23:56:40.024Z,24.47
2018-08-19T23:59:06.336Z,24.49
